Time;durP1;ratioP1;P1;durP2;ratioP2;P2;SDS_P1;SDS_P2;PMS_P1;PMS_P2;Temp;Humidity;BMP_temperature;BMP_pressure;BME280_temperature;BME280_humidity;BME280_pressure;Samples;Min_cycle;Max_cycle;Signal;HPM_P1;HPM_P2
2022/08/31 00:04:31;;;;;;;7.45;2.10;;;;;;;16.78;72.17;100708.53;1688599;83;25769;-67
2022/08/31 00:06:58;;;;;;;3.72;1.77;;;;;;;16.71;72.04;100723.91;1697129;82;25735;-68
2022/08/31 00:09:24;;;;;;;3.67;1.80;;;;;;;16.67;72.15;100722.42;1699755;81;27492;-68
2022/08/31 00:11:50;;;;;;;5.85;1.67;;;;;;;16.64;72.04;100719.58;1664137;83;25830;-68
2022/08/31 00:14:17;;;;;;;2.25;1.67;;;;;;;16.58;71.94;100721.72;1747297;80;25695;-68
2022/08/31 00:16:44;;;;;;;4.42;1.90;;;;;;;16.52;72.17;100723.88;1729776;81;25744;-68
2022/08/31 00:19:11;;;;;;;3.35;1.67;;;;;;;16.46;72.10;100724.42;1725523;80;26478;-68
2022/08/31 00:21:38;;;;;;;3.87;2.20;;;;;;;16.40;72.42;100719.19;1755514;80;27482;-68
2022/08/31 00:24:06;;;;;;;2.72;1.90;;;;;;;16.36;72.18;100719.64;1759161;79;25608;-68
2022/08/31 00:26:32;;;;;;;2.67;1.70;;;;;;;16.30;72.41;100722.34;1718460;80;26172;-68
2022/08/31 00:28:58;;;;;;;4.55;2.10;;;;;;;16.25;72.63;100721.98;1749314;80;25818;-68
2022/08/31 00:31:24;;;;;;;2.85;1.47;;;;;;;16.21;72.78;100720.28;1745780;80;25744;-68
2022/08/31 00:33:51;;;;;;;4.67;1.90;;;;;;;16.15;72.85;100720.25;1749481;80;27707;-68
2022/08/31 00:36:22;;;;;;;2.50;1.60;;;;;;;16.10;72.94;100725.34;1746158;80;25686;-68
2022/08/31 00:38:49;;;;;;;6.72;1.80;;;;;;;16.03;73.25;100721.80;1748152;80;25612;-68
2022/08/31 00:41:19;;;;;;;4.25;1.60;;;;;;;15.97;72.96;100720.97;1748602;80;25706;-68
2022/08/31 00:43:50;;;;;;;4.42;1.80;;;;;;;15.92;73.26;100726.63;1750881;80;25667;-68
2022/08/31 00:46:22;;;;;;;4.35;1.60;;;;;;;15.84;73.07;100725.59;1754724;80;28118;-68
2022/08/31 00:49:08;;;;;;;3.95;1.82;;;;;;;15.74;72.85;100728.69;1747118;80;25563;-68
2022/08/31 00:51:43;;;;;;;2.67;1.67;;;;;;;15.66;72.82;100735.80;1749915;80;25535;-67
2022/08/31 00:54:12;;;;;;;3.90;2.22;;;;;;;15.55;73.12;100734.04;1745471;80;26227;-68
2022/08/31 00:56:43;;;;;;;2.98;2.08;;;;;;;15.48;72.93;100733.20;1776526;78;25794;-68
2022/08/31 00:59:09;;;;;;;4.80;2.58;;;;;;;15.41;73.07;100740.30;1751205;79;28048;-68
2022/08/31 01:01:35;;;;;;;2.00;1.60;;;;;;;15.33;72.91;100737.08;1721562;80;25735;-68
2022/08/31 01:04:03;;;;;;;2.20;1.50;;;;;;;15.27;73.48;100736.45;1751357;80;25730;-68
2022/08/31 01:06:29;;;;;;;1.87;1.60;;;;;;;15.18;73.41;100736.51;1749143;80;25672;-68
2022/08/31 01:08:58;;;;;;;5.47;1.80;;;;;;;15.12;73.47;100741.92;1737356;80;25407;-68
2022/08/31 01:11:25;;;;;;;3.58;1.42;;;;;;;15.06;73.56;100739.14;1756398;79;27518;-68
2022/08/31 01:13:52;;;;;;;2.92;1.80;;;;;;;15.00;73.65;100737.72;1751173;80;25881;-68
2022/08/31 01:16:33;;;;;;;3.42;1.50;;;;;;;14.94;73.49;100737.91;1744757;79;25590;-68
2022/08/31 01:19:04;;;;;;;3.30;1.67;;;;;;;14.90;73.36;100738.34;1752828;80;25640;-68
2022/08/31 01:21:45;;;;;;;5.30;1.70;;;;;;;14.85;73.51;100734.44;1744393;80;25726;-68
2022/08/31 01:24:13;;;;;;;2.37;1.55;;;;;;;14.81;73.50;100743.58;1744232;80;27675;-68
2022/08/31 01:26:41;;;;;;;3.00;1.70;;;;;;;14.75;73.81;100741.03;1751761;79;25659;-68
2022/08/31 01:29:07;;;;;;;3.20;1.87;;;;;;;14.65;74.07;100735.94;1747000;80;26452;-68
2022/08/31 01:31:43;;;;;;;4.03;1.72;;;;;;;14.64;73.65;100733.55;1758486;79;25745;-68
2022/08/31 01:34:11;;;;;;;2.83;1.80;;;;;;;14.58;73.60;100736.98;1748173;80;26178;-69
2022/08/31 01:36:40;;;;;;;3.25;1.62;;;;;;;14.52;73.88;100733.65;1752142;79;27473;-68
2022/08/31 01:39:09;;;;;;;4.92;1.77;;;;;;;14.47;74.19;100733.00;1752294;80;25670;-69
2022/08/31 01:41:40;;;;;;;3.02;1.90;;;;;;;14.42;74.32;100733.99;1751524;80;25599;-68
2022/08/31 01:44:03;;;;;;;5.90;2.13;;;;;;;14.37;74.51;100730.09;1749946;80;25747;-68
2022/08/31 01:46:29;;;;;;;2.27;1.65;;;;;;;14.32;74.47;100729.69;1725186;80;25779;-69
2022/08/31 01:48:55;;;;;;;4.45;1.90;;;;;;;14.30;74.87;100736.02;1730301;81;27397;-68
2022/08/31 01:51:22;;;;;;;2.50;1.70;;;;;;;14.26;74.84;100727.45;1763626;80;25812;-68
2022/08/31 01:53:51;;;;;;;3.42;2.15;;;;;;;14.23;74.99;100734.33;1746567;80;25771;-68
2022/08/31 01:56:23;;;;;;;4.20;1.95;;;;;;;14.19;74.84;100732.81;1760536;79;33864;-69
2022/08/31 01:58:50;;;;;;;3.58;1.90;;;;;;;14.15;74.84;100727.00;1751018;79;25649;-69
2022/08/31 02:01:17;;;;;;;2.70;2.05;;;;;;;14.10;74.66;100725.24;1724682;81;27364;-68
2022/08/31 02:03:43;;;;;;;3.77;1.95;;;;;;;14.07;75.09;100732.68;1744107;80;25914;-68
2022/08/31 02:06:12;;;;;;;6.28;2.22;;;;;;;14.04;75.22;100732.53;1753954;80;25445;-68
2022/08/31 02:08:39;;;;;;;3.17;2.03;;;;;;;13.99;75.34;100730.77;1756664;80;26006;-69
2022/08/31 02:11:06;;;;;;;2.85;1.77;;;;;;;13.97;75.27;100730.29;1752483;80;25623;-69
2022/08/31 02:13:34;;;;;;;6.47;1.62;;;;;;;13.94;75.50;100735.80;1750834;79;27502;-68
2022/08/31 02:16:01;;;;;;;5.20;2.10;;;;;;;13.93;75.78;100734.78;1753178;80;25649;-69
2022/08/31 02:18:28;;;;;;;4.45;2.37;;;;;;;13.89;75.93;100731.87;1748735;80;25693;-66
2022/08/31 02:20:55;;;;;;;3.52;2.08;;;;;;;13.87;75.88;100730.05;1751007;80;25598;-67
2022/08/31 02:23:21;;;;;;;3.92;2.40;;;;;;;13.87;76.35;100727.89;1725182;81;25698;-67
2022/08/31 02:25:48;;;;;;;3.25;2.22;;;;;;;13.85;76.56;100728.21;1728436;81;27532;-67
2022/08/31 02:28:17;;;;;;;3.70;2.00;;;;;;;13.84;76.65;100723.88;1749315;80;25704;-67
2022/08/31 02:30:42;;;;;;;4.85;2.27;;;;;;;13.82;76.72;100724.23;1753793;79;25637;-67
2022/08/31 02:33:09;;;;;;;3.12;2.37;;;;;;;13.82;76.88;100726.13;1749933;79;25522;-69
2022/08/31 02:35:40;;;;;;;4.83;2.35;;;;;;;13.80;77.02;100727.80;1751014;80;25403;-67
2022/08/31 02:38:08;;;;;;;8.55;3.83;;;;;;;13.80;77.09;100728.37;1754771;80;28051;-68
2022/08/31 02:40:37;;;;;;;4.33;2.25;;;;;;;13.79;77.06;100731.66;1766590;80;25712;-68
2022/08/31 02:43:09;;;;;;;2.47;2.20;;;;;;;13.78;77.08;100726.54;1749408;80;25988;-68
2022/08/31 02:45:37;;;;;;;5.55;2.70;;;;;;;13.76;77.15;100717.34;1740205;80;25655;-68
2022/08/31 02:48:07;;;;;;;5.08;2.25;;;;;;;13.77;77.23;100724.92;1758105;80;25405;-68
2022/08/31 02:50:42;;;;;;;4.92;3.45;;;;;;;13.77;77.30;100725.75;1751209;79;27526;-68
2022/08/31 02:53:10;;;;;;;4.22;2.77;;;;;;;13.78;77.36;100731.98;1751943;79;25544;-68
2022/08/31 02:55:37;;;;;;;3.05;2.75;;;;;;;13.79;77.76;100733.02;1746108;80;25739;-69
2022/08/31 02:58:05;;;;;;;10.30;3.00;;;;;;;13.80;78.01;100734.60;1746186;79;25508;-68
2022/08/31 03:00:33;;;;;;;3.13;2.67;;;;;;;13.81;78.11;100730.77;1754442;80;25399;-68
2022/08/31 03:03:00;;;;;;;3.40;2.83;;;;;;;13.83;78.52;100737.25;1762722;80;27451;-66
2022/08/31 03:05:27;;;;;;;5.85;2.80;;;;;;;13.83;78.52;100731.25;1733497;80;25918;-67
2022/08/31 03:07:54;;;;;;;7.58;2.98;;;;;;;13.86;78.55;100731.19;1749946;80;25551;-69
2022/08/31 03:10:23;;;;;;;3.30;3.00;;;;;;;13.88;78.74;100734.95;1745228;80;25650;-69
2022/08/31 03:12:52;;;;;;;3.70;2.30;;;;;;;13.90;78.88;100734.06;1749257;80;25627;-69
2022/08/31 03:15:22;;;;;;;5.72;2.75;;;;;;;13.92;79.09;100738.61;1751854;80;27516;-69
2022/08/31 03:17:48;;;;;;;4.47;2.42;;;;;;;13.94;79.25;100735.00;1749560;80;25680;-69
2022/08/31 03:20:17;;;;;;;6.85;2.87;;;;;;;13.98;79.20;100734.62;1743701;80;25365;-69
2022/08/31 03:22:44;;;;;;;4.80;2.83;;;;;;;13.99;79.52;100735.63;1748429;80;25491;-67
2022/08/31 03:25:10;;;;;;;4.10;2.70;;;;;;;14.02;79.74;100738.28;1748226;80;25385;-67
2022/08/31 03:27:38;;;;;;;4.25;2.42;;;;;;;14.05;79.72;100739.58;1748763;80;27911;-67
2022/08/31 03:30:10;;;;;;;4.00;2.58;;;;;;;14.07;79.86;100745.48;1746706;80;25548;-67
2022/08/31 03:32:36;;;;;;;6.03;2.37;;;;;;;14.08;79.82;100741.09;1747596;80;25602;-70
2022/08/31 03:35:04;;;;;;;5.45;2.87;;;;;;;14.10;79.98;100744.28;1745898;80;26169;-69
2022/08/31 03:37:31;;;;;;;5.77;2.80;;;;;;;14.12;80.00;100739.31;1754648;80;25638;-67
2022/08/31 03:39:58;;;;;;;4.53;2.62;;;;;;;14.15;80.04;100745.48;1748510;80;29623;-67
2022/08/31 03:42:26;;;;;;;4.03;2.55;;;;;;;14.18;80.02;100740.76;1720323;82;25596;-67
2022/08/31 03:44:52;;;;;;;5.97;2.60;;;;;;;14.21;80.02;100746.10;1723574;79;25682;-67
2022/08/31 03:47:20;;;;;;;5.08;2.62;;;;;;;14.23;80.21;100744.42;1774205;80;25573;-68
2022/08/31 03:49:46;;;;;;;3.85;2.50;;;;;;;14.25;80.32;100750.33;1742913;80;25666;-68
2022/08/31 03:52:12;;;;;;;4.72;3.08;;;;;;;14.26;80.34;100750.02;1756962;79;27436;-67
2022/08/31 03:54:39;;;;;;;5.47;3.20;;;;;;;14.29;80.57;100749.94;1752566;80;25592;-69
2022/08/31 03:57:06;;;;;;;4.80;2.60;;;;;;;14.31;80.55;100750.41;1708599;81;25735;-70
2022/08/31 03:59:33;;;;;;;4.25;2.70;;;;;;;14.32;80.61;100747.91;1722325;80;25617;-70
2022/08/31 04:01:59;;;;;;;8.85;2.90;;;;;;;14.36;80.66;100752.39;1737721;80;25508;-70
2022/08/31 04:04:25;;;;;;;4.35;2.40;;;;;;;14.38;80.69;100749.36;1751316;80;27570;-70
2022/08/31 04:06:51;;;;;;;4.97;2.33;;;;;;;14.40;80.68;100753.91;1751842;80;25740;-70
2022/08/31 04:09:18;;;;;;;5.12;2.85;;;;;;;14.44;80.64;100756.23;1756655;80;25790;-70
2022/08/31 04:11:44;;;;;;;5.00;2.42;;;;;;;14.45;80.65;100751.02;1735377;80;25668;-70
2022/08/31 04:14:11;;;;;;;3.47;2.40;;;;;;;14.48;80.64;100758.53;1748742;80;25409;-70
2022/08/31 04:16:40;;;;;;;4.28;2.37;;;;;;;14.51;80.68;100753.81;1767483;79;27514;-68
2022/08/31 04:19:07;;;;;;;3.33;2.35;;;;;;;14.55;80.67;100756.11;1746325;79;25457;-68
2022/08/31 04:21:34;;;;;;;4.75;2.55;;;;;;;14.60;80.70;100765.27;1747135;80;26017;-68
2022/08/31 04:24:02;;;;;;;5.70;2.22;;;;;;;14.65;80.83;100769.19;1771528;79;25517;-68
2022/08/31 04:26:36;;;;;;;6.33;2.52;;;;;;;14.69;80.77;100766.03;1737278;80;25614;-68
2022/08/31 04:29:04;;;;;;;3.98;3.00;;;;;;;14.73;80.90;100775.17;1750569;80;27572;-69
2022/08/31 04:31:30;;;;;;;3.67;2.30;;;;;;;14.77;81.02;100778.83;1756259;79;25873;-69
2022/08/31 04:33:57;;;;;;;4.40;3.00;;;;;;;14.82;80.90;100785.46;1758212;79;25654;-69
2022/08/31 04:36:26;;;;;;;5.50;2.85;;;;;;;14.85;80.89;100788.90;1752114;80;25749;-69
2022/08/31 04:38:56;;;;;;;4.08;2.60;;;;;;;14.89;81.05;100791.20;1752441;79;25710;-69
2022/08/31 04:41:25;;;;;;;3.92;2.30;;;;;;;14.97;81.22;100801.05;1752453;79;27426;-69
2022/08/31 04:43:56;;;;;;;3.08;2.27;;;;;;;15.04;81.22;100798.61;1752373;80;25739;-69
2022/08/31 04:46:23;;;;;;;5.80;2.90;;;;;;;15.09;81.12;100802.52;1722564;79;25682;-69
2022/08/31 04:48:50;;;;;;;4.17;2.47;;;;;;;15.15;81.23;100799.83;1752597;79;26226;-69
2022/08/31 04:51:24;;;;;;;8.00;2.92;;;;;;;15.21;81.17;100801.25;1752393;79;25415;-69
2022/08/31 04:53:51;;;;;;;3.58;2.12;;;;;;;15.28;81.29;100800.74;1741890;80;27506;-69
2022/08/31 04:56:26;;;;;;;6.60;2.52;;;;;;;15.35;81.08;100798.87;1739872;81;25700;-69
2022/08/31 04:58:57;;;;;;;4.92;1.98;;;;;;;15.40;80.92;100796.75;1744340;79;26341;-69
2022/08/31 05:01:28;;;;;;;5.95;2.30;;;;;;;15.46;80.65;100802.80;1754530;80;26159;-69
2022/08/31 05:03:58;;;;;;;4.42;2.22;;;;;;;15.54;80.84;100803.31;1760157;80;25701;-69
2022/08/31 05:06:31;;;;;;;4.08;2.20;;;;;;;15.61;80.79;100800.89;1747839;78;27536;-68
2022/08/31 05:09:11;;;;;;;4.05;2.42;;;;;;;15.70;81.15;100799.47;1749294;80;25828;-69
2022/08/31 05:11:38;;;;;;;2.85;2.10;;;;;;;15.79;80.73;100798.07;1746639;79;25769;-68
2022/08/31 05:14:07;;;;;;;5.30;2.42;;;;;;;15.87;80.34;100795.84;1750027;80;25675;-70
2022/08/31 05:16:36;;;;;;;3.83;1.77;;;;;;;15.97;80.15;100801.45;1752482;80;25736;-69
2022/08/31 05:19:03;;;;;;;5.87;2.15;;;;;;;16.06;80.19;100802.20;1752200;80;27529;-69
2022/08/31 05:21:34;;;;;;;6.25;2.52;;;;;;;16.15;80.30;100801.55;1726546;81;25387;-70
2022/08/31 05:24:14;;;;;;;3.98;2.20;;;;;;;16.23;80.04;100802.05;1771528;80;25700;-69
2022/08/31 05:26:47;;;;;;;4.58;1.92;;;;;;;16.34;79.75;100801.62;1747916;80;25583;-69
2022/08/31 05:29:16;;;;;;;4.37;1.87;;;;;;;16.43;79.26;100796.90;1722998;81;25469;-68
2022/08/31 05:31:44;;;;;;;4.12;1.72;;;;;;;16.51;78.73;100800.66;1736285;80;27598;-68
2022/08/31 05:34:13;;;;;;;4.83;1.37;;;;;;;16.62;78.46;100803.21;1769341;80;25747;-70
2022/08/31 05:36:42;;;;;;;5.60;1.50;;;;;;;16.72;78.48;100801.41;1767293;79;25772;-68
2022/08/31 05:39:11;;;;;;;2.83;1.52;;;;;;;16.83;77.96;100801.77;1766746;79;26205;-68
2022/08/31 05:41:41;;;;;;;2.58;1.85;;;;;;;16.92;77.09;100804.42;1768595;79;25610;-68
2022/08/31 05:44:09;;;;;;;4.15;2.25;;;;;;;17.02;77.29;100811.39;1770987;79;27567;-69
2022/08/31 05:46:35;;;;;;;4.35;1.70;;;;;;;17.08;76.78;100808.09;1769511;79;25702;-68
2022/08/31 05:49:04;;;;;;;2.75;1.62;;;;;;;17.14;75.67;100808.08;1766074;79;25745;-67
2022/08/31 05:51:32;;;;;;;2.37;1.40;;;;;;;17.21;75.69;100814.35;1765839;79;26117;-67
2022/08/31 05:54:02;;;;;;;3.98;1.20;;;;;;;17.28;75.12;100818.70;1726937;81;25692;-69
2022/08/31 05:56:28;;;;;;;6.12;1.32;;;;;;;17.35;74.82;100819.51;1749626;80;27658;-68
2022/08/31 05:58:56;;;;;;;3.70;1.30;;;;;;;17.45;74.86;100817.68;1744263;80;25467;-67
2022/08/31 06:01:29;;;;;;;4.78;1.10;;;;;;;17.54;74.33;100819.71;1765389;80;25748;-68
2022/08/31 06:03:57;;;;;;;1.52;1.00;;;;;;;17.63;73.60;100824.27;1772608;79;25606;-69
2022/08/31 06:06:24;;;;;;;2.47;1.20;;;;;;;17.68;73.49;100826.77;1770190;80;25389;-69
2022/08/31 06:08:52;;;;;;;5.53;1.70;;;;;;;17.79;73.36;100831.19;1768224;79;27404;-69
2022/08/31 06:11:22;;;;;;;2.62;1.75;;;;;;;17.89;72.60;100835.66;1768383;79;25690;-69
2022/08/31 06:13:52;;;;;;;4.53;1.30;;;;;;;17.98;72.32;100831.97;1764959;80;25727;-68
2022/08/31 06:16:20;;;;;;;3.85;1.17;;;;;;;18.05;71.85;100836.30;1771080;79;26099;-69
2022/08/31 06:18:49;;;;;;;5.20;1.65;;;;;;;18.14;71.70;100841.64;1773696;80;25769;-69
2022/08/31 06:21:24;;;;;;;5.00;1.47;;;;;;;18.27;71.42;100838.51;1771521;79;27576;-68
2022/08/31 06:23:56;;;;;;;4.05;0.95;;;;;;;18.39;70.82;100843.70;1719097;82;25428;-70
2022/08/31 06:26:24;;;;;;;2.33;1.20;;;;;;;18.46;70.11;100850.19;1747142;79;25671;-69
2022/08/31 06:28:53;;;;;;;3.47;1.10;;;;;;;18.56;69.96;100854.37;1734135;80;25622;-71
2022/08/31 06:31:30;;;;;;;1.65;1.20;;;;;;;18.76;69.60;100854.48;1745109;80;25766;-70
2022/08/31 06:33:57;;;;;;;2.67;1.22;;;;;;;18.93;69.25;100853.39;1745677;80;28136;-69
2022/08/31 06:36:27;;;;;;;2.17;0.90;;;;;;;19.15;68.83;100851.41;1761155;80;25916;-71
2022/08/31 06:38:58;;;;;;;2.25;1.00;;;;;;;19.42;68.52;100858.53;1750263;80;25657;-70
2022/08/31 06:41:37;;;;;;;3.77;1.15;;;;;;;19.70;68.40;100854.30;1743383;80;25476;-70
2022/08/31 06:44:08;;;;;;;2.55;0.95;;;;;;;20.00;67.58;100855.16;1755355;80;25696;-70
2022/08/31 06:46:38;;;;;;;1.98;0.95;;;;;;;20.17;66.78;100848.46;1728274;81;27549;-70
2022/08/31 06:49:06;;;;;;;2.75;1.10;;;;;;;20.34;66.12;100847.23;1762402;79;25840;-71
2022/08/31 06:51:35;;;;;;;2.35;1.05;;;;;;;20.55;65.66;100845.50;1746298;80;25621;-70
2022/08/31 06:54:00;;;;;;;2.58;1.30;;;;;;;20.69;64.47;100845.78;1751485;79;25640;-70
2022/08/31 06:56:27;;;;;;;1.72;0.70;;;;;;;20.82;63.96;100842.30;1729242;81;25507;-71
2022/08/31 06:58:53;;;;;;;2.05;0.90;;;;;;;20.98;63.26;100843.55;1750500;80;28082;-70
2022/08/31 07:01:27;;;;;;;3.33;1.15;;;;;;;21.10;62.83;100848.66;1758360;80;25663;-70
2022/08/31 07:03:52;;;;;;;1.25;0.85;;;;;;;21.19;62.07;100845.06;1739960;80;25338;-69
2022/08/31 07:06:23;;;;;;;3.27;1.05;;;;;;;21.38;61.89;100851.06;1755851;80;25737;-69
2022/08/31 07:08:56;;;;;;;2.60;1.10;;;;;;;21.66;61.42;100844.42;1735466;80;25659;-70
2022/08/31 07:11:27;;;;;;;3.17;0.90;;;;;;;22.06;61.20;100847.14;1761543;79;28028;-70
2022/08/31 07:13:56;;;;;;;2.15;0.60;;;;;;;22.43;60.01;100849.98;1752518;79;25454;-70
2022/08/31 07:16:25;;;;;;;2.45;1.00;;;;;;;22.74;59.12;100856.22;1752029;80;25609;-69
2022/08/31 07:18:53;;;;;;;1.62;1.12;;;;;;;22.99;58.48;100850.16;1749762;80;25792;-68
2022/08/31 07:21:27;;;;;;;1.27;0.90;;;;;;;23.28;57.08;100848.45;1747115;81;25646;-69
2022/08/31 07:23:57;;;;;;;1.70;0.80;;;;;;;23.57;56.31;100848.67;1750273;79;29646;-69
2022/08/31 07:26:28;;;;;;;2.62;1.30;;;;;;;23.79;54.98;100848.20;1750203;80;27336;-69
2022/08/31 07:29:03;;;;;;;2.12;0.95;;;;;;;24.06;54.49;100854.30;1751902;80;25720;-70
2022/08/31 07:31:36;;;;;;;2.35;0.70;;;;;;;24.35;53.97;100853.03;1747282;80;25741;-69
2022/08/31 07:34:01;;;;;;;2.62;0.70;;;;;;;24.58;52.88;100847.97;1724745;81;25675;-69
2022/08/31 07:36:27;;;;;;;3.17;0.85;;;;;;;24.76;51.91;100848.61;1738617;81;27724;-69
2022/08/31 07:44:24;;;;;;;0.70;0.60;;;;;;;25.45;49.90;100850.81;1753507;81;26168;-69
2022/08/31 07:46:54;;;;;;;1.85;1.10;;;;;;;25.63;49.20;100845.25;1760438;80;25784;-69
2022/08/31 07:49:19;;;;;;;1.22;0.90;;;;;;;25.80;48.54;100854.11;1732436;80;27695;-71
2022/08/31 07:51:54;;;;;;;2.12;0.80;;;;;;;26.06;48.36;100848.70;1743923;80;25634;-68
2022/08/31 07:54:20;;;;;;;4.28;0.90;;;;;;;26.32;47.38;100847.98;1734654;80;25676;-70
2022/08/31 07:56:48;;;;;;;1.55;0.72;;;;;;;26.61;47.21;100845.86;1736113;80;26041;-70
2022/08/31 07:59:18;;;;;;;1.30;0.60;;;;;;;26.94;47.04;100843.67;1737234;81;25659;-70
2022/08/31 08:01:46;;;;;;;2.27;0.90;;;;;;;27.23;46.08;100842.66;1746803;80;27496;-70
2022/08/31 08:04:24;;;;;;;3.15;1.25;;;;;;;27.52;45.41;100843.20;1743998;80;25367;-70
2022/08/31 08:06:44;;;;;;;1.72;0.88;;;;;;;27.75;44.99;100847.52;1740224;80;25627;-70
2022/08/31 08:09:10;;;;;;;4.22;0.78;;;;;;;28.03;43.93;100852.58;1743624;81;25549;-69
2022/08/31 08:11:43;;;;;;;4.83;0.80;;;;;;;28.25;42.92;100853.09;1749726;81;25648;-69
2022/08/31 08:14:11;;;;;;;0.80;0.65;;;;;;;28.48;42.26;100852.98;1754512;79;29729;-70
2022/08/31 08:16:38;;;;;;;3.08;0.68;;;;;;;28.74;41.88;100852.03;1742687;80;25407;-70
2022/08/31 08:19:04;;;;;;;2.10;1.30;;;;;;;29.02;40.96;100858.55;1753103;79;25525;-70
2022/08/31 08:21:30;;;;;;;1.92;0.98;;;;;;;29.13;40.19;100861.15;1742673;81;25415;-70
2022/08/31 08:23:56;;;;;;;3.62;0.80;;;;;;;29.31;39.72;100856.70;1744574;81;25396;-70
2022/08/31 08:26:23;;;;;;;3.33;0.70;;;;;;;29.53;39.38;100861.91;1755462;80;27446;-70
2022/08/31 08:28:49;;;;;;;4.40;1.00;;;;;;;29.67;38.75;100865.80;1740849;81;25657;-70
2022/08/31 08:31:21;;;;;;;2.27;1.40;;;;;;;29.86;38.39;100869.06;1745376;80;25532;-69
2022/08/31 08:33:49;;;;;;;3.58;0.90;;;;;;;29.94;38.04;100871.90;1751846;80;25701;-70
2022/08/31 08:36:18;;;;;;;5.37;1.55;;;;;;;30.11;37.85;100870.73;1722998;80;25746;-70
2022/08/31 08:38:49;;;;;;;1.98;0.70;;;;;;;30.37;37.43;100870.24;1749854;79;27688;-71
2022/08/31 08:41:20;;;;;;;2.55;1.52;;;;;;;30.60;37.13;100874.89;1743516;80;25673;-70
2022/08/31 08:43:57;;;;;;;1.25;1.00;;;;;;;30.77;36.57;100861.75;1746309;80;25602;-71
2022/08/31 08:46:38;;;;;;;4.25;1.02;;;;;;;30.93;36.18;100863.16;1747963;79;25790;-71
2022/08/31 08:49:12;;;;;;;2.77;0.70;;;;;;;31.20;35.50;100869.12;1747481;80;26338;-70
2022/08/31 08:51:38;;;;;;;1.27;0.62;;;;;;;31.43;34.81;100860.53;1753569;79;27506;-70
2022/08/31 08:54:10;;;;;;;1.67;0.95;;;;;;;31.62;34.36;100859.47;1746112;80;25800;-70
2022/08/31 08:56:40;;;;;;;1.20;0.50;;;;;;;31.83;34.27;100866.47;1744278;80;25449;-71
2022/08/31 08:59:05;;;;;;;0.60;0.60;;;;;;;31.96;33.19;100862.30;1742159;80;25620;-71
2022/08/31 09:01:34;;;;;;;2.85;0.68;;;;;;;32.14;32.87;100864.61;1744140;81;25572;-71
2022/08/31 09:04:09;;;;;;;1.12;0.57;;;;;;;32.30;32.54;100862.33;1734075;82;27467;-70
2022/08/31 09:07:11;;;;;;;1.45;0.70;;;;;;;32.53;32.40;100860.61;1742989;81;25602;-70
2022/08/31 09:10:11;;;;;;;3.70;0.80;;;;;;;32.73;31.99;100856.22;1736342;80;25468;-67
2022/08/31 09:12:58;;;;;;;5.58;0.70;;;;;;;32.71;31.98;100865.69;1666066;85;25588;-66
2022/08/31 09:16:03;;;;;;;1.02;0.60;;;;;;;32.91;32.10;100861.25;1636574;86;25735;-65
2022/08/31 09:18:43;;;;;;;1.52;0.50;;;;;;;33.06;31.40;100855.94;1651668;85;27527;-65
2022/08/31 09:21:33;;;;;;;1.60;0.60;;;;;;;33.29;30.23;100856.82;1641796;86;27330;-65
2022/08/31 09:24:01;;;;;;;;;;;;;;;33.39;30.00;100856.27;1643245;86;25793;-65
2022/08/31 09:26:34;;;;;;;0.72;0.47;;;;;;;33.49;29.05;100867.72;1642027;85;26041;-66
2022/08/31 09:29:03;;;;;;;3.20;0.82;;;;;;;33.49;29.05;100867.72;1637710;85;25770;-66
2022/08/31 09:31:40;;;;;;;1.12;0.55;;;;;;;33.59;28.78;100880.57;1639007;86;28024;-66
2022/08/31 09:34:24;;;;;;;2.02;0.35;;;;;;;33.54;28.54;100867.77;1646427;86;25842;-67
2022/08/31 09:36:53;;;;;;;0.98;0.78;;;;;;;33.67;28.15;100860.08;1644272;86;25734;-66
2022/08/31 09:39:29;;;;;;;0.93;0.82;;;;;;;33.76;27.55;100860.80;1645085;85;32672;-66
2022/08/31 09:42:02;;;;;;;1.57;0.80;;;;;;;33.73;27.94;100851.28;1638637;86;25680;-66
2022/08/31 09:44:34;;;;;;;2.80;0.80;;;;;;;33.65;27.81;100851.34;1703830;82;27552;-65
2022/08/31 09:47:05;;;;;;;1.65;0.55;;;;;;;33.58;27.20;100850.18;1714368;82;25749;-66
2022/08/31 09:49:37;;;;;;;3.77;0.70;;;;;;;33.29;26.67;100847.02;1713662;82;25769;-67
2022/08/31 09:55:12;;;;;;;1.10;0.93;;;;;;;32.94;26.86;100844.14;1727635;81;25692;-67
2022/08/31 09:55:13;;;;;;;1.12;0.50;;;;;;;32.97;27.27;100850.25;1742300;80;26228;-67
2022/08/31 09:57:51;;;;;;;0.82;0.62;;;;;;;33.20;26.70;100837.88;1750593;81;27372;-67
2022/08/31 10:00:38;;;;;;;2.00;0.80;;;;;;;33.42;26.96;100837.91;1728238;80;25697;-67
2022/08/31 10:03:19;;;;;;;1.57;0.82;;;;;;;33.69;26.71;100841.58;1739276;80;25624;-67
2022/08/31 10:05:50;;;;;;;1.92;0.70;;;;;;;33.82;26.14;100862.55;1741053;79;26134;-66
2022/08/31 10:08:39;;;;;;;1.22;0.60;;;;;;;33.83;25.64;100840.29;1735131;80;25624;-75
2022/08/31 10:11:18;;;;;;;3.17;0.85;;;;;;;33.94;25.83;100837.70;1713736;82;27460;-69
2022/08/31 10:14:08;;;;;;;2.50;0.85;;;;;;;34.05;25.42;100831.84;1723046;81;25726;-69
2022/08/31 10:16:51;;;;;;;2.27;0.85;;;;;;;33.71;25.11;100833.34;1710044;83;25602;-68
2022/08/31 10:19:29;;;;;;;1.62;0.98;;;;;;;33.71;25.44;100834.73;1706116;81;25590;-70
2022/08/31 10:21:58;;;;;;;2.10;0.90;;;;;;;33.46;25.03;100839.98;1724772;81;25666;-68
2022/08/31 10:25:00;;;;;;;2.05;0.60;;;;;;;33.16;25.46;100835.83;1722620;81;27491;-69
2022/08/31 10:27:37;;;;;;;1.98;0.70;;;;;;;33.41;25.78;100835.59;1717752;80;26099;-70
2022/08/31 10:30:29;;;;;;;1.65;0.62;;;;;;;33.80;25.29;100827.17;1737989;80;25836;-69
2022/08/31 10:33:12;;;;;;;1.92;0.65;;;;;;;33.96;25.01;100816.34;1685317;83;25816;-69
2022/08/31 10:35:53;;;;;;;1.50;0.88;;;;;;;33.93;24.89;100817.27;1659532;84;25756;-68
2022/08/31 10:38:35;;;;;;;0.95;0.95;;;;;;;33.55;24.76;100816.06;1661883;84;27571;-66
2022/08/31 10:41:24;;;;;;;1.25;0.70;;;;;;;33.32;25.10;100815.25;1649156;85;25829;-68
2022/08/31 10:44:04;;;;;;;2.42;0.72;;;;;;;33.69;25.17;100819.77;1657255;85;25795;-72
2022/08/31 10:46:34;;;;;;;1.40;0.82;;;;;;;33.32;24.81;100823.66;1658564;84;25790;-70
2022/08/31 10:49:02;;;;;;;;;;;;;;;32.93;25.35;100820.16;1676923;83;25860;-71
2022/08/31 10:52:09;;;;;;;0.57;0.55;;;;;;;33.07;25.06;100824.52;1677434;83;27551;-70
2022/08/31 10:55:14;;;;;;;1.62;0.68;;;;;;;33.78;24.73;100806.42;1690395;83;25840;-72
2022/08/31 10:57:55;;;;;;;1.20;0.70;;;;;;;33.78;24.73;100806.42;1685443;83;25691;-71
2022/08/31 11:00:41;;;;;;;2.72;0.60;;;;;;;34.05;24.60;100812.80;1689475;83;26084;-71
2022/08/31 11:03:35;;;;;;;1.75;0.70;;;;;;;34.49;23.89;100801.47;1683998;81;25614;-72
2022/08/31 11:06:22;;;;;;;2.08;0.60;;;;;;;34.53;23.66;100805.54;1723667;80;27464;-68
2022/08/31 11:09:11;;;;;;;2.40;0.68;;;;;;;34.56;23.47;100806.02;1734148;81;25715;-67
2022/08/31 11:12:08;;;;;;;2.20;0.70;;;;;;;33.98;23.32;100809.65;1740855;80;25690;-68
2022/08/31 11:14:49;;;;;;;3.75;0.85;;;;;;;33.06;23.15;100798.50;1737996;80;25694;-68
2022/08/31 11:17:21;;;;;;;4.12;0.82;;;;;;;32.15;23.86;100800.44;1747967;80;25796;-67
2022/08/31 11:20:18;;;;;;;2.05;0.80;;;;;;;32.15;24.87;100799.82;1747321;80;27840;-67
2022/08/31 11:23:07;;;;;;;0.75;0.75;;;;;;;32.52;25.01;100798.07;1751854;80;25745;-66
2022/08/31 11:25:57;;;;;;;0.72;0.72;;;;;;;32.95;24.81;100791.09;1752027;80;25612;-66
2022/08/31 11:28:32;;;;;;;1.55;0.78;;;;;;;33.38;24.44;100783.23;1741779;82;25725;-67
2022/08/31 11:31:22;;;;;;;4.22;0.80;;;;;;;33.85;23.99;100799.94;1726716;80;25677;-67
2022/08/31 11:33:55;;;;;;;1.20;0.65;;;;;;;33.82;23.84;100777.00;1744933;79;29867;-66
2022/08/31 11:36:54;;;;;;;0.90;0.60;;;;;;;33.85;23.80;100783.10;1743598;80;25801;-66
2022/08/31 11:39:35;;;;;;;1.42;0.80;;;;;;;34.07;23.57;100782.25;1735314;80;25579;-69
2022/08/31 11:42:13;;;;;;;1.00;0.70;;;;;;;34.38;23.57;100775.87;1742747;80;25626;-71
2022/08/31 11:44:43;;;;;;;1.20;0.90;;;;;;;34.55;23.45;100781.38;1735291;80;25734;-71
2022/08/31 11:47:33;;;;;;;2.42;1.27;;;;;;;34.27;23.07;100786.75;1719778;81;27569;-74
2022/08/31 11:50:23;;;;;;;2.77;0.72;;;;;;;33.79;23.84;100781.34;1718856;81;25552;-71
2022/08/31 11:52:52;;;;;;;4.40;1.10;;;;;;;33.38;23.66;100785.41;1728719;81;25895;-74
2022/08/31 11:55:28;;;;;;;3.98;1.72;;;;;;;31.67;25.19;100781.23;1722407;81;26067;-75
2022/08/31 11:58:10;;;;;;;1.62;0.90;;;;;;;31.67;25.19;100781.23;1721816;81;25791;-74